sensor_id;sensor_type;location;lat;lon;timestamp;P1;durP1;ratioP1;P2;durP2;ratioP2
25950;SDS011;13748;52.240;6.002;2022-12-10T00:02:10;133.00;;;40.93;;
25950;SDS011;13748;52.240;6.002;2022-12-10T00:04:37;123.43;;;38.30;;
25950;SDS011;13748;52.240;6.002;2022-12-10T00:07:04;120.53;;;39.50;;
25950;SDS011;13748;52.240;6.002;2022-12-10T00:09:30;130.83;;;39.77;;
25950;SDS011;13748;52.240;6.002;2022-12-10T00:11:57;123.77;;;41.50;;
25950;SDS011;13748;52.240;6.002;2022-12-10T00:14:24;128.57;;;40.57;;
25950;SDS011;13748;52.240;6.002;2022-12-10T00:16:51;126.33;;;38.53;;
25950;SDS011;13748;52.240;6.002;2022-12-10T00:19:17;129.17;;;39.00;;
25950;SDS011;13748;52.240;6.002;2022-12-10T00:21:44;128.33;;;40.27;;
25950;SDS011;13748;52.240;6.002;2022-12-10T00:24:11;123.53;;;40.47;;
25950;SDS011;13748;52.240;6.002;2022-12-10T00:26:38;113.87;;;36.77;;
25950;SDS011;13748;52.240;6.002;2022-12-10T00:29:06;114.00;;;35.57;;
25950;SDS011;13748;52.240;6.002;2022-12-10T00:31:36;115.40;;;38.47;;
25950;SDS011;13748;52.240;6.002;2022-12-10T00:34:05;126.53;;;39.03;;
25950;SDS011;13748;52.240;6.002;2022-12-10T00:36:35;119.57;;;36.40;;
25950;SDS011;13748;52.240;6.002;2022-12-10T00:39:08;116.40;;;38.60;;
25950;SDS011;13748;52.240;6.002;2022-12-10T00:41:37;117.67;;;36.90;;
25950;SDS011;13748;52.240;6.002;2022-12-10T00:44:04;115.40;;;37.23;;
25950;SDS011;13748;52.240;6.002;2022-12-10T00:46:31;116.23;;;37.47;;
25950;SDS011;13748;52.240;6.002;2022-12-10T00:48:58;112.17;;;38.90;;
25950;SDS011;13748;52.240;6.002;2022-12-10T00:51:26;126.80;;;39.80;;
25950;SDS011;13748;52.240;6.002;2022-12-10T00:53:54;119.37;;;38.17;;
25950;SDS011;13748;52.240;6.002;2022-12-10T00:56:23;117.97;;;37.63;;
25950;SDS011;13748;52.240;6.002;2022-12-10T00:58:52;126.83;;;37.40;;
25950;SDS011;13748;52.240;6.002;2022-12-10T01:03:47;119.07;;;37.17;;
25950;SDS011;13748;52.240;6.002;2022-12-10T01:06:17;115.30;;;35.93;;
25950;SDS011;13748;52.240;6.002;2022-12-10T01:08:45;109.13;;;37.00;;
25950;SDS011;13748;52.240;6.002;2022-12-10T01:11:12;110.20;;;37.27;;
25950;SDS011;13748;52.240;6.002;2022-12-10T01:13:41;109.03;;;37.27;;
25950;SDS011;13748;52.240;6.002;2022-12-10T01:16:09;110.27;;;36.40;;
25950;SDS011;13748;52.240;6.002;2022-12-10T01:18:37;113.40;;;37.83;;
25950;SDS011;13748;52.240;6.002;2022-12-10T01:21:05;117.37;;;38.37;;
25950;SDS011;13748;52.240;6.002;2022-12-10T01:23:36;109.43;;;39.17;;
25950;SDS011;13748;52.240;6.002;2022-12-10T01:26:06;111.83;;;39.13;;
25950;SDS011;13748;52.240;6.002;2022-12-10T01:28:35;123.47;;;38.43;;
25950;SDS011;13748;52.240;6.002;2022-12-10T01:31:05;115.10;;;38.77;;
25950;SDS011;13748;52.240;6.002;2022-12-10T01:33:42;116.40;;;37.40;;
25950;SDS011;13748;52.240;6.002;2022-12-10T01:36:16;128.67;;;39.17;;
25950;SDS011;13748;52.240;6.002;2022-12-10T01:38:54;109.90;;;37.10;;
25950;SDS011;13748;52.240;6.002;2022-12-10T01:41:22;119.53;;;38.20;;
25950;SDS011;13748;52.240;6.002;2022-12-10T01:43:50;114.30;;;37.17;;
25950;SDS011;13748;52.240;6.002;2022-12-10T01:46:21;121.73;;;38.27;;
25950;SDS011;13748;52.240;6.002;2022-12-10T01:48:49;118.73;;;38.70;;
25950;SDS011;13748;52.240;6.002;2022-12-10T01:51:17;119.10;;;36.57;;
25950;SDS011;13748;52.240;6.002;2022-12-10T01:53:44;124.03;;;40.50;;
25950;SDS011;13748;52.240;6.002;2022-12-10T01:56:12;125.07;;;37.87;;
25950;SDS011;13748;52.240;6.002;2022-12-10T01:58:41;114.27;;;38.10;;
25950;SDS011;13748;52.240;6.002;2022-12-10T02:01:10;126.30;;;37.23;;
25950;SDS011;13748;52.240;6.002;2022-12-10T02:03:44;113.17;;;37.53;;
25950;SDS011;13748;52.240;6.002;2022-12-10T02:06:22;102.93;;;36.03;;
25950;SDS011;13748;52.240;6.002;2022-12-10T02:09:10;116.10;;;37.17;;
25950;SDS011;13748;52.240;6.002;2022-12-10T02:11:59;111.10;;;38.40;;
25950;SDS011;13748;52.240;6.002;2022-12-10T02:17:37;115.60;;;38.70;;
25950;SDS011;13748;52.240;6.002;2022-12-10T02:20:29;124.60;;;40.33;;
25950;SDS011;13748;52.240;6.002;2022-12-10T02:23:01;124.23;;;39.33;;
25950;SDS011;13748;52.240;6.002;2022-12-10T02:25:54;112.40;;;38.03;;
25950;SDS011;13748;52.240;6.002;2022-12-10T02:28:51;115.73;;;37.80;;
25950;SDS011;13748;52.240;6.002;2022-12-10T02:31:29;118.80;;;38.77;;
25950;SDS011;13748;52.240;6.002;2022-12-10T02:33:58;113.50;;;37.67;;
25950;SDS011;13748;52.240;6.002;2022-12-10T02:36:29;110.30;;;36.70;;
25950;SDS011;13748;52.240;6.002;2022-12-10T02:38:59;107.23;;;37.73;;
25950;SDS011;13748;52.240;6.002;2022-12-10T02:41:30;101.63;;;35.57;;
25950;SDS011;13748;52.240;6.002;2022-12-10T02:44:05;99.67;;;34.87;;
25950;SDS011;13748;52.240;6.002;2022-12-10T02:46:36;107.63;;;36.60;;
25950;SDS011;13748;52.240;6.002;2022-12-10T02:49:06;102.87;;;36.97;;
25950;SDS011;13748;52.240;6.002;2022-12-10T02:51:34;99.17;;;36.50;;
25950;SDS011;13748;52.240;6.002;2022-12-10T02:54:02;121.07;;;39.30;;
25950;SDS011;13748;52.240;6.002;2022-12-10T02:56:33;105.53;;;36.73;;
25950;SDS011;13748;52.240;6.002;2022-12-10T02:59:33;110.43;;;38.77;;
25950;SDS011;13748;52.240;6.002;2022-12-10T03:13:09;111.87;;;37.80;;
25950;SDS011;13748;52.240;6.002;2022-12-10T03:15:41;106.17;;;37.40;;
25950;SDS011;13748;52.240;6.002;2022-12-10T03:18:09;123.73;;;39.60;;
25950;SDS011;13748;52.240;6.002;2022-12-10T03:20:39;116.00;;;39.50;;
25950;SDS011;13748;52.240;6.002;2022-12-10T03:23:11;106.97;;;37.80;;
25950;SDS011;13748;52.240;6.002;2022-12-10T03:25:42;116.97;;;39.47;;
25950;SDS011;13748;52.240;6.002;2022-12-10T03:28:13;112.07;;;39.13;;
25950;SDS011;13748;52.240;6.002;2022-12-10T03:30:44;132.00;;;39.33;;
25950;SDS011;13748;52.240;6.002;2022-12-10T03:33:12;119.47;;;38.93;;
25950;SDS011;13748;52.240;6.002;2022-12-10T03:35:39;121.77;;;40.70;;
25950;SDS011;13748;52.240;6.002;2022-12-10T03:38:06;125.73;;;40.57;;
25950;SDS011;13748;52.240;6.002;2022-12-10T03:40:34;129.57;;;42.93;;
25950;SDS011;13748;52.240;6.002;2022-12-10T03:43:01;135.73;;;43.83;;
25950;SDS011;13748;52.240;6.002;2022-12-10T03:45:28;142.77;;;43.57;;
25950;SDS011;13748;52.240;6.002;2022-12-10T03:47:55;126.13;;;42.40;;
25950;SDS011;13748;52.240;6.002;2022-12-10T03:50:21;128.13;;;42.73;;
25950;SDS011;13748;52.240;6.002;2022-12-10T03:52:48;136.33;;;42.50;;
25950;SDS011;13748;52.240;6.002;2022-12-10T03:55:15;125.57;;;41.87;;
25950;SDS011;13748;52.240;6.002;2022-12-10T03:57:42;118.00;;;41.33;;
25950;SDS011;13748;52.240;6.002;2022-12-10T04:00:09;121.10;;;41.87;;
25950;SDS011;13748;52.240;6.002;2022-12-10T04:02:37;136.13;;;43.10;;
25950;SDS011;13748;52.240;6.002;2022-12-10T04:05:03;123.13;;;41.00;;
25950;SDS011;13748;52.240;6.002;2022-12-10T04:07:32;131.07;;;42.27;;
25950;SDS011;13748;52.240;6.002;2022-12-10T04:10:00;134.33;;;42.47;;
25950;SDS011;13748;52.240;6.002;2022-12-10T04:12:26;136.70;;;43.50;;
25950;SDS011;13748;52.240;6.002;2022-12-10T04:14:53;141.43;;;43.97;;
25950;SDS011;13748;52.240;6.002;2022-12-10T04:17:38;125.83;;;43.57;;
25950;SDS011;13748;52.240;6.002;2022-12-10T04:20:05;138.33;;;43.90;;
25950;SDS011;13748;52.240;6.002;2022-12-10T04:22:52;131.67;;;42.47;;
25950;SDS011;13748;52.240;6.002;2022-12-10T04:25:37;143.33;;;44.07;;
25950;SDS011;13748;52.240;6.002;2022-12-10T04:28:23;137.73;;;44.53;;
25950;SDS011;13748;52.240;6.002;2022-12-10T04:30:50;157.03;;;47.17;;
25950;SDS011;13748;52.240;6.002;2022-12-10T04:33:16;154.07;;;46.40;;
25950;SDS011;13748;52.240;6.002;2022-12-10T04:35:43;154.63;;;45.50;;
25950;SDS011;13748;52.240;6.002;2022-12-10T04:38:10;153.93;;;44.83;;
25950;SDS011;13748;52.240;6.002;2022-12-10T04:40:36;136.20;;;43.70;;
25950;SDS011;13748;52.240;6.002;2022-12-10T04:43:03;150.43;;;44.37;;
25950;SDS011;13748;52.240;6.002;2022-12-10T04:45:30;147.43;;;46.10;;
25950;SDS011;13748;52.240;6.002;2022-12-10T04:47:59;152.53;;;45.23;;
25950;SDS011;13748;52.240;6.002;2022-12-10T04:50:26;168.20;;;44.57;;
25950;SDS011;13748;52.240;6.002;2022-12-10T04:52:52;154.20;;;45.30;;
25950;SDS011;13748;52.240;6.002;2022-12-10T04:55:19;172.13;;;47.53;;
25950;SDS011;13748;52.240;6.002;2022-12-10T04:57:46;156.20;;;47.27;;
25950;SDS011;13748;52.240;6.002;2022-12-10T05:00:12;167.67;;;47.27;;
25950;SDS011;13748;52.240;6.002;2022-12-10T05:02:39;164.17;;;46.80;;
25950;SDS011;13748;52.240;6.002;2022-12-10T05:05:06;144.50;;;45.20;;
25950;SDS011;13748;52.240;6.002;2022-12-10T05:07:33;164.30;;;47.17;;
25950;SDS011;13748;52.240;6.002;2022-12-10T05:09:59;164.23;;;49.00;;
25950;SDS011;13748;52.240;6.002;2022-12-10T05:12:26;148.50;;;44.87;;
25950;SDS011;13748;52.240;6.002;2022-12-10T05:14:54;158.47;;;47.63;;
25950;SDS011;13748;52.240;6.002;2022-12-10T05:17:20;159.80;;;46.70;;
25950;SDS011;13748;52.240;6.002;2022-12-10T05:19:47;165.27;;;46.83;;
25950;SDS011;13748;52.240;6.002;2022-12-10T05:22:14;170.37;;;48.00;;
25950;SDS011;13748;52.240;6.002;2022-12-10T05:24:59;164.93;;;44.90;;
25950;SDS011;13748;52.240;6.002;2022-12-10T05:27:30;151.70;;;44.70;;
25950;SDS011;13748;52.240;6.002;2022-12-10T05:29:57;147.20;;;44.00;;
25950;SDS011;13748;52.240;6.002;2022-12-10T05:32:24;159.20;;;45.33;;
25950;SDS011;13748;52.240;6.002;2022-12-10T05:34:51;157.73;;;44.40;;
25950;SDS011;13748;52.240;6.002;2022-12-10T05:37:17;171.97;;;42.63;;
25950;SDS011;13748;52.240;6.002;2022-12-10T05:39:44;154.67;;;43.53;;
25950;SDS011;13748;52.240;6.002;2022-12-10T05:42:11;162.10;;;44.50;;
25950;SDS011;13748;52.240;6.002;2022-12-10T05:44:37;160.93;;;42.53;;
25950;SDS011;13748;52.240;6.002;2022-12-10T05:47:04;141.33;;;40.80;;
25950;SDS011;13748;52.240;6.002;2022-12-10T05:49:31;160.13;;;42.50;;
25950;SDS011;13748;52.240;6.002;2022-12-10T05:51:57;144.07;;;40.83;;
25950;SDS011;13748;52.240;6.002;2022-12-10T05:54:24;149.07;;;41.30;;
25950;SDS011;13748;52.240;6.002;2022-12-10T05:56:51;160.13;;;43.67;;
25950;SDS011;13748;52.240;6.002;2022-12-10T05:59:18;149.03;;;41.90;;
25950;SDS011;13748;52.240;6.002;2022-12-10T06:01:44;155.57;;;42.97;;
25950;SDS011;13748;52.240;6.002;2022-12-10T06:04:12;146.70;;;42.27;;
25950;SDS011;13748;52.240;6.002;2022-12-10T06:06:39;154.63;;;43.97;;
25950;SDS011;13748;52.240;6.002;2022-12-10T06:09:07;160.30;;;44.97;;
25950;SDS011;13748;52.240;6.002;2022-12-10T06:11:38;149.93;;;41.87;;
25950;SDS011;13748;52.240;6.002;2022-12-10T06:14:04;152.20;;;43.77;;
25950;SDS011;13748;52.240;6.002;2022-12-10T06:16:31;159.53;;;44.40;;
25950;SDS011;13748;52.240;6.002;2022-12-10T06:18:58;161.03;;;43.60;;
25950;SDS011;13748;52.240;6.002;2022-12-10T06:21:25;152.23;;;42.53;;
25950;SDS011;13748;52.240;6.002;2022-12-10T06:23:52;168.63;;;44.97;;
25950;SDS011;13748;52.240;6.002;2022-12-10T06:26:20;153.70;;;42.70;;
25950;SDS011;13748;52.240;6.002;2022-12-10T06:28:51;164.53;;;45.43;;
25950;SDS011;13748;52.240;6.002;2022-12-10T06:31:19;149.17;;;42.83;;
25950;SDS011;13748;52.240;6.002;2022-12-10T06:33:46;137.57;;;42.83;;
25950;SDS011;13748;52.240;6.002;2022-12-10T06:36:14;141.27;;;41.17;;
25950;SDS011;13748;52.240;6.002;2022-12-10T06:38:42;163.80;;;44.33;;
25950;SDS011;13748;52.240;6.002;2022-12-10T06:41:10;156.73;;;42.37;;
25950;SDS011;13748;52.240;6.002;2022-12-10T06:43:38;148.67;;;42.50;;
25950;SDS011;13748;52.240;6.002;2022-12-10T06:46:06;144.70;;;40.87;;
25950;SDS011;13748;52.240;6.002;2022-12-10T06:48:34;158.23;;;43.20;;
25950;SDS011;13748;52.240;6.002;2022-12-10T06:51:02;151.07;;;42.20;;
25950;SDS011;13748;52.240;6.002;2022-12-10T06:53:31;150.93;;;42.87;;
25950;SDS011;13748;52.240;6.002;2022-12-10T06:55:59;147.67;;;41.43;;
25950;SDS011;13748;52.240;6.002;2022-12-10T06:58:27;157.97;;;43.17;;
25950;SDS011;13748;52.240;6.002;2022-12-10T07:01:01;154.83;;;42.80;;
25950;SDS011;13748;52.240;6.002;2022-12-10T07:03:32;150.40;;;43.53;;
25950;SDS011;13748;52.240;6.002;2022-12-10T07:06:02;147.07;;;45.33;;
25950;SDS011;13748;52.240;6.002;2022-12-10T07:08:30;162.37;;;41.53;;
25950;SDS011;13748;52.240;6.002;2022-12-10T07:10:56;150.90;;;43.83;;
25950;SDS011;13748;52.240;6.002;2022-12-10T07:13:23;165.43;;;43.13;;
25950;SDS011;13748;52.240;6.002;2022-12-10T07:15:56;162.73;;;41.30;;
25950;SDS011;13748;52.240;6.002;2022-12-10T07:18:23;166.17;;;44.50;;
25950;SDS011;13748;52.240;6.002;2022-12-10T07:20:50;174.10;;;45.93;;
25950;SDS011;13748;52.240;6.002;2022-12-10T07:23:16;182.33;;;46.60;;
25950;SDS011;13748;52.240;6.002;2022-12-10T07:25:43;171.67;;;44.07;;
25950;SDS011;13748;52.240;6.002;2022-12-10T07:28:10;180.43;;;48.80;;
25950;SDS011;13748;52.240;6.002;2022-12-10T07:30:37;180.63;;;49.03;;
25950;SDS011;13748;52.240;6.002;2022-12-10T07:33:04;187.73;;;45.07;;
25950;SDS011;13748;52.240;6.002;2022-12-10T07:35:30;194.23;;;49.63;;
25950;SDS011;13748;52.240;6.002;2022-12-10T07:37:57;188.23;;;46.67;;
25950;SDS011;13748;52.240;6.002;2022-12-10T07:40:24;197.83;;;47.70;;
25950;SDS011;13748;52.240;6.002;2022-12-10T07:42:50;197.93;;;47.27;;
25950;SDS011;13748;52.240;6.002;2022-12-10T07:45:17;183.90;;;48.27;;
25950;SDS011;13748;52.240;6.002;2022-12-10T07:47:44;190.37;;;48.33;;
25950;SDS011;13748;52.240;6.002;2022-12-10T07:50:10;180.57;;;46.77;;
25950;SDS011;13748;52.240;6.002;2022-12-10T07:52:37;206.47;;;49.73;;
25950;SDS011;13748;52.240;6.002;2022-12-10T07:55:04;195.90;;;48.67;;
25950;SDS011;13748;52.240;6.002;2022-12-10T07:57:31;191.90;;;49.20;;
25950;SDS011;13748;52.240;6.002;2022-12-10T07:59:58;178.93;;;45.53;;
25950;SDS011;13748;52.240;6.002;2022-12-10T08:02:25;198.93;;;50.07;;
25950;SDS011;13748;52.240;6.002;2022-12-10T08:04:54;185.40;;;46.07;;
25950;SDS011;13748;52.240;6.002;2022-12-10T08:07:21;184.33;;;47.10;;
25950;SDS011;13748;52.240;6.002;2022-12-10T08:09:48;166.77;;;45.23;;
25950;SDS011;13748;52.240;6.002;2022-12-10T08:12:15;179.57;;;46.63;;
25950;SDS011;13748;52.240;6.002;2022-12-10T08:14:41;170.30;;;45.43;;
25950;SDS011;13748;52.240;6.002;2022-12-10T08:17:08;171.20;;;43.67;;
25950;SDS011;13748;52.240;6.002;2022-12-10T08:19:35;171.53;;;42.97;;
25950;SDS011;13748;52.240;6.002;2022-12-10T08:22:01;171.03;;;45.07;;
25950;SDS011;13748;52.240;6.002;2022-12-10T08:24:28;172.07;;;43.27;;
25950;SDS011;13748;52.240;6.002;2022-12-10T08:26:55;171.67;;;43.83;;
25950;SDS011;13748;52.240;6.002;2022-12-10T08:29:22;177.60;;;45.20;;
25950;SDS011;13748;52.240;6.002;2022-12-10T08:31:48;169.87;;;42.40;;
25950;SDS011;13748;52.240;6.002;2022-12-10T08:34:16;179.00;;;44.47;;
25950;SDS011;13748;52.240;6.002;2022-12-10T08:36:44;180.37;;;48.13;;
25950;SDS011;13748;52.240;6.002;2022-12-10T08:39:12;176.77;;;45.43;;
25950;SDS011;13748;52.240;6.002;2022-12-10T08:41:42;179.73;;;48.77;;
25950;SDS011;13748;52.240;6.002;2022-12-10T08:44:11;172.40;;;45.40;;
25950;SDS011;13748;52.240;6.002;2022-12-10T08:46:38;161.77;;;45.47;;
25950;SDS011;13748;52.240;6.002;2022-12-10T08:49:05;168.53;;;44.03;;
25950;SDS011;13748;52.240;6.002;2022-12-10T08:51:35;170.97;;;43.67;;
25950;SDS011;13748;52.240;6.002;2022-12-10T08:54:02;181.97;;;45.47;;
25950;SDS011;13748;52.240;6.002;2022-12-10T08:56:28;162.07;;;40.83;;
25950;SDS011;13748;52.240;6.002;2022-12-10T08:58:55;186.10;;;43.00;;
25950;SDS011;13748;52.240;6.002;2022-12-10T09:01:22;173.27;;;44.27;;
25950;SDS011;13748;52.240;6.002;2022-12-10T09:03:49;167.20;;;43.73;;
25950;SDS011;13748;52.240;6.002;2022-12-10T09:06:17;163.93;;;45.03;;
25950;SDS011;13748;52.240;6.002;2022-12-10T09:08:46;168.50;;;43.70;;
25950;SDS011;13748;52.240;6.002;2022-12-10T09:11:17;180.17;;;44.40;;
25950;SDS011;13748;52.240;6.002;2022-12-10T09:13:49;163.43;;;41.90;;
25950;SDS011;13748;52.240;6.002;2022-12-10T09:16:16;166.10;;;43.97;;
25950;SDS011;13748;52.240;6.002;2022-12-10T09:18:43;183.87;;;45.83;;
25950;SDS011;13748;52.240;6.002;2022-12-10T09:21:12;175.03;;;45.67;;
25950;SDS011;13748;52.240;6.002;2022-12-10T09:23:41;186.20;;;47.40;;
25950;SDS011;13748;52.240;6.002;2022-12-10T09:26:09;180.83;;;45.07;;
25950;SDS011;13748;52.240;6.002;2022-12-10T09:28:37;177.17;;;46.13;;
25950;SDS011;13748;52.240;6.002;2022-12-10T09:31:04;199.33;;;48.40;;
25950;SDS011;13748;52.240;6.002;2022-12-10T09:33:39;162.93;;;45.90;;
25950;SDS011;13748;52.240;6.002;2022-12-10T09:36:07;164.73;;;45.43;;
25950;SDS011;13748;52.240;6.002;2022-12-10T09:38:36;145.27;;;43.17;;
25950;SDS011;13748;52.240;6.002;2022-12-10T09:43:56;145.47;;;40.67;;
25950;SDS011;13748;52.240;6.002;2022-12-10T09:46:35;126.33;;;38.93;;
25950;SDS011;13748;52.240;6.002;2022-12-10T09:49:35;127.83;;;36.73;;
25950;SDS011;13748;52.240;6.002;2022-12-10T09:52:18;122.80;;;36.30;;
25950;SDS011;13748;52.240;6.002;2022-12-10T09:57:30;121.43;;;37.27;;
25950;SDS011;13748;52.240;6.002;2022-12-10T10:00:05;122.43;;;37.87;;
25950;SDS011;13748;52.240;6.002;2022-12-10T10:02:55;116.07;;;35.13;;
25950;SDS011;13748;52.240;6.002;2022-12-10T10:05:26;126.87;;;34.83;;
25950;SDS011;13748;52.240;6.002;2022-12-10T10:07:56;115.60;;;35.83;;
25950;SDS011;13748;52.240;6.002;2022-12-10T10:10:33;112.53;;;34.43;;
25950;SDS011;13748;52.240;6.002;2022-12-10T10:15:35;105.13;;;33.90;;
25950;SDS011;13748;52.240;6.002;2022-12-10T10:21:07;115.80;;;34.27;;
25950;SDS011;13748;52.240;6.002;2022-12-10T10:23:50;104.53;;;32.80;;
25950;SDS011;13748;52.240;6.002;2022-12-10T10:26:17;110.27;;;34.80;;
25950;SDS011;13748;52.240;6.002;2022-12-10T10:28:44;100.93;;;33.83;;
25950;SDS011;13748;52.240;6.002;2022-12-10T10:31:18;111.40;;;35.33;;
25950;SDS011;13748;52.240;6.002;2022-12-10T10:33:53;104.73;;;32.93;;
25950;SDS011;13748;52.240;6.002;2022-12-10T10:36:25;105.57;;;32.90;;
25950;SDS011;13748;52.240;6.002;2022-12-10T10:39:06;108.87;;;33.33;;
25950;SDS011;13748;52.240;6.002;2022-12-10T10:41:36;109.20;;;33.40;;
25950;SDS011;13748;52.240;6.002;2022-12-10T10:44:11;119.13;;;33.33;;
25950;SDS011;13748;52.240;6.002;2022-12-10T10:46:41;120.63;;;34.87;;
25950;SDS011;13748;52.240;6.002;2022-12-10T10:51:52;111.70;;;33.93;;
25950;SDS011;13748;52.240;6.002;2022-12-10T10:54:31;93.00;;;32.03;;
25950;SDS011;13748;52.240;6.002;2022-12-10T10:57:01;98.70;;;29.77;;
25950;SDS011;13748;52.240;6.002;2022-12-10T10:59:34;100.57;;;30.97;;
25950;SDS011;13748;52.240;6.002;2022-12-10T11:02:24;101.87;;;33.70;;
25950;SDS011;13748;52.240;6.002;2022-12-10T11:04:51;96.43;;;30.67;;
25950;SDS011;13748;52.240;6.002;2022-12-10T11:09:48;113.23;;;32.80;;
25950;SDS011;13748;52.240;6.002;2022-12-10T11:12:27;101.80;;;31.70;;
25950;SDS011;13748;52.240;6.002;2022-12-10T11:14:55;106.43;;;32.97;;
25950;SDS011;13748;52.240;6.002;2022-12-10T11:17:22;105.00;;;32.93;;
25950;SDS011;13748;52.240;6.002;2022-12-10T11:20:01;93.40;;;31.57;;
25950;SDS011;13748;52.240;6.002;2022-12-10T11:22:58;90.47;;;30.50;;
25950;SDS011;13748;52.240;6.002;2022-12-10T11:25:32;102.57;;;31.03;;
25950;SDS011;13748;52.240;6.002;2022-12-10T11:28:53;96.17;;;29.00;;
25950;SDS011;13748;52.240;6.002;2022-12-10T11:33:52;82.60;;;28.47;;
25950;SDS011;13748;52.240;6.002;2022-12-10T11:41:56;89.90;;;29.87;;
25950;SDS011;13748;52.240;6.002;2022-12-10T11:44:50;84.70;;;28.87;;
25950;SDS011;13748;52.240;6.002;2022-12-10T11:50:24;82.07;;;27.53;;
25950;SDS011;13748;52.240;6.002;2022-12-10T11:53:19;88.27;;;29.37;;
25950;SDS011;13748;52.240;6.002;2022-12-10T12:09:50;78.90;;;27.63;;
25950;SDS011;13748;52.240;6.002;2022-12-10T12:15:22;89.27;;;29.27;;
25950;SDS011;13748;52.240;6.002;2022-12-10T12:17:56;78.40;;;27.17;;
25950;SDS011;13748;52.240;6.002;2022-12-10T12:26:10;73.07;;;24.87;;
25950;SDS011;13748;52.240;6.002;2022-12-10T12:28:47;75.00;;;25.03;;
25950;SDS011;13748;52.240;6.002;2022-12-10T12:31:24;70.27;;;24.97;;
25950;SDS011;13748;52.240;6.002;2022-12-10T12:34:01;75.27;;;26.90;;
25950;SDS011;13748;52.240;6.002;2022-12-10T12:36:37;74.00;;;25.83;;
25950;SDS011;13748;52.240;6.002;2022-12-10T12:47:05;82.33;;;27.00;;
25950;SDS011;13748;52.240;6.002;2022-12-10T12:49:45;82.17;;;26.30;;
25950;SDS011;13748;52.240;6.002;2022-12-10T12:52:29;78.03;;;26.37;;
25950;SDS011;13748;52.240;6.002;2022-12-10T12:55:15;69.77;;;24.43;;
25950;SDS011;13748;52.240;6.002;2022-12-10T12:57:46;75.47;;;25.53;;
25950;SDS011;13748;52.240;6.002;2022-12-10T13:00:19;65.37;;;25.30;;
25950;SDS011;13748;52.240;6.002;2022-12-10T13:03:00;81.73;;;27.80;;
25950;SDS011;13748;52.240;6.002;2022-12-10T13:05:44;74.03;;;25.10;;
25950;SDS011;13748;52.240;6.002;2022-12-10T13:10:46;76.03;;;25.13;;
25950;SDS011;13748;52.240;6.002;2022-12-10T13:29:45;72.57;;;23.67;;
25950;SDS011;13748;52.240;6.002;2022-12-10T13:35:15;69.63;;;23.17;;
25950;SDS011;13748;52.240;6.002;2022-12-10T13:37:36;73.53;;;25.03;;
25950;SDS011;13748;52.240;6.002;2022-12-10T13:42:37;65.57;;;23.23;;
25950;SDS011;13748;52.240;6.002;2022-12-10T13:45:28;71.40;;;26.47;;
25950;SDS011;13748;52.240;6.002;2022-12-10T13:50:48;71.53;;;23.33;;
25950;SDS011;13748;52.240;6.002;2022-12-10T13:53:30;61.17;;;22.73;;
25950;SDS011;13748;52.240;6.002;2022-12-10T13:56:28;65.60;;;22.30;;
25950;SDS011;13748;52.240;6.002;2022-12-10T13:59:19;63.80;;;22.90;;
25950;SDS011;13748;52.240;6.002;2022-12-10T14:07:15;56.97;;;23.00;;
25950;SDS011;13748;52.240;6.002;2022-12-10T14:09:48;72.77;;;25.13;;
25950;SDS011;13748;52.240;6.002;2022-12-10T14:12:20;66.03;;;23.10;;
25950;SDS011;13748;52.240;6.002;2022-12-10T14:14:55;64.67;;;22.93;;
25950;SDS011;13748;52.240;6.002;2022-12-10T14:17:29;73.40;;;24.37;;
25950;SDS011;13748;52.240;6.002;2022-12-10T14:20:03;75.27;;;25.00;;
25950;SDS011;13748;52.240;6.002;2022-12-10T14:22:34;68.30;;;23.33;;
25950;SDS011;13748;52.240;6.002;2022-12-10T14:25:05;73.50;;;24.23;;
25950;SDS011;13748;52.240;6.002;2022-12-10T14:27:37;63.97;;;24.33;;
25950;SDS011;13748;52.240;6.002;2022-12-10T14:30:06;64.90;;;22.67;;
25950;SDS011;13748;52.240;6.002;2022-12-10T14:32:42;69.20;;;23.27;;
25950;SDS011;13748;52.240;6.002;2022-12-10T14:35:14;71.03;;;22.80;;
25950;SDS011;13748;52.240;6.002;2022-12-10T14:37:53;64.23;;;22.43;;
25950;SDS011;13748;52.240;6.002;2022-12-10T14:40:26;65.50;;;22.77;;
25950;SDS011;13748;52.240;6.002;2022-12-10T14:43:11;67.67;;;23.73;;
25950;SDS011;13748;52.240;6.002;2022-12-10T14:45:44;67.07;;;22.50;;
25950;SDS011;13748;52.240;6.002;2022-12-10T14:48:22;70.43;;;23.33;;
25950;SDS011;13748;52.240;6.002;2022-12-10T14:50:49;65.70;;;22.87;;
25950;SDS011;13748;52.240;6.002;2022-12-10T14:53:18;69.33;;;23.73;;
25950;SDS011;13748;52.240;6.002;2022-12-10T14:55:56;69.40;;;23.13;;
25950;SDS011;13748;52.240;6.002;2022-12-10T14:58:36;62.90;;;21.40;;
25950;SDS011;13748;52.240;6.002;2022-12-10T15:01:09;64.77;;;22.60;;
25950;SDS011;13748;52.240;6.002;2022-12-10T15:03:47;64.00;;;23.40;;
25950;SDS011;13748;52.240;6.002;2022-12-10T15:06:17;70.73;;;26.57;;
25950;SDS011;13748;52.240;6.002;2022-12-10T15:08:45;72.27;;;25.57;;
25950;SDS011;13748;52.240;6.002;2022-12-10T15:11:15;72.70;;;26.77;;
25950;SDS011;13748;52.240;6.002;2022-12-10T15:13:49;78.47;;;28.80;;
25950;SDS011;13748;52.240;6.002;2022-12-10T15:18:55;69.07;;;23.67;;
25950;SDS011;13748;52.240;6.002;2022-12-10T15:21:33;71.87;;;24.80;;
25950;SDS011;13748;52.240;6.002;2022-12-10T15:24:11;86.93;;;23.77;;
25950;SDS011;13748;52.240;6.002;2022-12-10T15:26:43;72.87;;;22.80;;
25950;SDS011;13748;52.240;6.002;2022-12-10T15:29:31;78.73;;;25.63;;
25950;SDS011;13748;52.240;6.002;2022-12-10T15:32:01;65.43;;;23.50;;
25950;SDS011;13748;52.240;6.002;2022-12-10T15:34:47;61.57;;;21.63;;
25950;SDS011;13748;52.240;6.002;2022-12-10T15:37:23;76.97;;;23.30;;
25950;SDS011;13748;52.240;6.002;2022-12-10T15:39:53;73.73;;;25.67;;
25950;SDS011;13748;52.240;6.002;2022-12-10T15:42:36;67.30;;;22.83;;
25950;SDS011;13748;52.240;6.002;2022-12-10T15:45:11;70.27;;;27.40;;
25950;SDS011;13748;52.240;6.002;2022-12-10T15:47:57;62.40;;;21.30;;
25950;SDS011;13748;52.240;6.002;2022-12-10T15:50:25;63.00;;;22.50;;
25950;SDS011;13748;52.240;6.002;2022-12-10T15:52:52;59.80;;;22.20;;
25950;SDS011;13748;52.240;6.002;2022-12-10T15:55:19;64.20;;;24.40;;
25950;SDS011;13748;52.240;6.002;2022-12-10T15:57:46;55.10;;;22.57;;
25950;SDS011;13748;52.240;6.002;2022-12-10T16:00:16;62.13;;;22.43;;
25950;SDS011;13748;52.240;6.002;2022-12-10T16:05:25;66.23;;;22.77;;
25950;SDS011;13748;52.240;6.002;2022-12-10T16:08:01;63.50;;;22.50;;
25950;SDS011;13748;52.240;6.002;2022-12-10T16:10:49;64.37;;;25.17;;
25950;SDS011;13748;52.240;6.002;2022-12-10T16:13:18;67.33;;;25.47;;
25950;SDS011;13748;52.240;6.002;2022-12-10T16:15:54;59.53;;;21.43;;
25950;SDS011;13748;52.240;6.002;2022-12-10T16:18:24;54.97;;;20.97;;
25950;SDS011;13748;52.240;6.002;2022-12-10T16:20:58;57.67;;;19.87;;
25950;SDS011;13748;52.240;6.002;2022-12-10T16:23:25;63.97;;;21.33;;
25950;SDS011;13748;52.240;6.002;2022-12-10T16:25:52;57.13;;;20.67;;
25950;SDS011;13748;52.240;6.002;2022-12-10T16:28:19;56.47;;;21.57;;